sensor_id;sensor_type;location;lat;lon;timestamp;pressure;altitude;pressure_sealevel;temperature;humidity
80511;BME280;69840;53.040;8.600;2023-05-07T00:02:17;102052.38;;;10.59;79.74
80511;BME280;69840;53.040;8.600;2023-05-07T00:04:44;102048.34;;;10.54;80.06
80511;BME280;69840;53.040;8.600;2023-05-07T00:07:12;102044.72;;;10.55;79.94
80511;BME280;69840;53.040;8.600;2023-05-07T00:09:39;102050.84;;;10.56;79.16
80511;BME280;69840;53.040;8.600;2023-05-07T00:12:07;102054.41;;;10.45;80.17
80511;BME280;69840;53.040;8.600;2023-05-07T00:14:35;102053.72;;;10.43;79.98
80511;BME280;69840;53.040;8.600;2023-05-07T00:17:02;102054.50;;;10.34;80.07
80511;BME280;69840;53.040;8.600;2023-05-07T00:19:30;102046.00;;;10.31;80.52
80511;BME280;69840;53.040;8.600;2023-05-07T00:21:57;102044.69;;;10.25;80.83
80511;BME280;69840;53.040;8.600;2023-05-07T00:24:25;102045.53;;;10.26;80.81
80511;BME280;69840;53.040;8.600;2023-05-07T00:26:52;102043.88;;;10.25;81.02
80511;BME280;69840;53.040;8.600;2023-05-07T00:29:20;102048.19;;;10.26;80.98
80511;BME280;69840;53.040;8.600;2023-05-07T00:31:49;102041.09;;;10.26;80.49
80511;BME280;69840;53.040;8.600;2023-05-07T00:34:16;102040.13;;;10.27;80.41
80511;BME280;69840;53.040;8.600;2023-05-07T00:36:44;102049.03;;;10.26;80.26
80511;BME280;69840;53.040;8.600;2023-05-07T00:39:11;102045.41;;;10.27;79.96
80511;BME280;69840;53.040;8.600;2023-05-07T00:41:39;102048.06;;;10.27;80.06
80511;BME280;69840;53.040;8.600;2023-05-07T00:44:06;102045.66;;;10.24;80.06
80511;BME280;69840;53.040;8.600;2023-05-07T00:46:34;102052.19;;;10.20;80.13
80511;BME280;69840;53.040;8.600;2023-05-07T00:49:02;102045.25;;;10.08;80.44
80511;BME280;69840;53.040;8.600;2023-05-07T00:51:29;102056.09;;;10.05;80.90
80511;BME280;69840;53.040;8.600;2023-05-07T00:53:57;102041.22;;;10.04;80.62
80511;BME280;69840;53.040;8.600;2023-05-07T00:56:25;102049.41;;;10.01;80.47
80511;BME280;69840;53.040;8.600;2023-05-07T00:58:53;102051.91;;;10.02;80.77
80511;BME280;69840;53.040;8.600;2023-05-07T01:01:21;102053.50;;;9.94;81.05
80511;BME280;69840;53.040;8.600;2023-05-07T01:03:49;102047.38;;;9.93;81.33
80511;BME280;69840;53.040;8.600;2023-05-07T01:06:17;102045.47;;;9.95;81.00
80511;BME280;69840;53.040;8.600;2023-05-07T01:08:45;102054.22;;;9.96;80.54
80511;BME280;69840;53.040;8.600;2023-05-07T01:11:13;102048.50;;;9.91;81.01
80511;BME280;69840;53.040;8.600;2023-05-07T01:13:41;102050.44;;;9.89;81.18
80511;BME280;69840;53.040;8.600;2023-05-07T01:16:09;102050.03;;;9.93;80.74
80511;BME280;69840;53.040;8.600;2023-05-07T01:18:37;102047.25;;;9.95;80.70
80511;BME280;69840;53.040;8.600;2023-05-07T01:21:05;102049.34;;;9.91;81.40
80511;BME280;69840;53.040;8.600;2023-05-07T01:23:33;102056.03;;;9.95;81.02
80511;BME280;69840;53.040;8.600;2023-05-07T01:26:01;102042.69;;;9.97;80.68
80511;BME280;69840;53.040;8.600;2023-05-07T01:28:30;102047.38;;;9.93;81.13
80511;BME280;69840;53.040;8.600;2023-05-07T01:31:02;102036.16;;;9.91;80.99
80511;BME280;69840;53.040;8.600;2023-05-07T01:33:34;102039.47;;;9.93;80.92
80511;BME280;69840;53.040;8.600;2023-05-07T01:36:03;102040.13;;;9.85;81.17
80511;BME280;69840;53.040;8.600;2023-05-07T01:38:32;102042.75;;;9.85;80.94
80511;BME280;69840;53.040;8.600;2023-05-07T01:41:00;102038.38;;;9.96;80.82
80511;BME280;69840;53.040;8.600;2023-05-07T01:43:29;102043.22;;;9.91;80.80
80511;BME280;69840;53.040;8.600;2023-05-07T01:45:58;102052.03;;;9.80;81.15
80511;BME280;69840;53.040;8.600;2023-05-07T01:48:27;102053.69;;;9.81;80.62
80511;BME280;69840;53.040;8.600;2023-05-07T01:50:55;102035.22;;;9.81;80.97
80511;BME280;69840;53.040;8.600;2023-05-07T01:53:22;102035.59;;;9.76;80.85
80511;BME280;69840;53.040;8.600;2023-05-07T01:55:50;102048.59;;;9.68;81.59
80511;BME280;69840;53.040;8.600;2023-05-07T01:58:19;102053.88;;;9.68;81.69
80511;BME280;69840;53.040;8.600;2023-05-07T02:00:47;102052.31;;;9.66;81.83
80511;BME280;69840;53.040;8.600;2023-05-07T02:03:14;102051.25;;;9.68;81.44
80511;BME280;69840;53.040;8.600;2023-05-07T02:05:51;102060.38;;;9.64;81.92
80511;BME280;69840;53.040;8.600;2023-05-07T02:08:27;102058.81;;;9.62;81.88
80511;BME280;69840;53.040;8.600;2023-05-07T02:10:55;102054.22;;;9.43;82.70
80511;BME280;69840;53.040;8.600;2023-05-07T02:13:23;102056.88;;;9.43;82.63
80511;BME280;69840;53.040;8.600;2023-05-07T02:15:50;102059.22;;;9.46;82.54
80511;BME280;69840;53.040;8.600;2023-05-07T02:18:18;102073.50;;;9.55;82.28
80511;BME280;69840;53.040;8.600;2023-05-07T02:20:45;102066.16;;;9.58;82.51
80511;BME280;69840;53.040;8.600;2023-05-07T02:23:13;102063.53;;;9.58;82.51
80511;BME280;69840;53.040;8.600;2023-05-07T02:25:41;102067.25;;;9.56;82.28
80511;BME280;69840;53.040;8.600;2023-05-07T02:28:08;102065.09;;;9.49;82.58
80511;BME280;69840;53.040;8.600;2023-05-07T02:30:45;102056.09;;;9.52;82.49
80511;BME280;69840;53.040;8.600;2023-05-07T02:33:13;102066.91;;;9.49;81.50
80511;BME280;69840;53.040;8.600;2023-05-07T02:35:40;102066.59;;;9.42;81.96
80511;BME280;69840;53.040;8.600;2023-05-07T02:38:09;102069.91;;;9.44;81.63
80511;BME280;69840;53.040;8.600;2023-05-07T02:40:38;102069.84;;;9.35;81.85
80511;BME280;69840;53.040;8.600;2023-05-07T02:43:06;102074.63;;;9.41;81.71
80511;BME280;69840;53.040;8.600;2023-05-07T02:45:33;102081.59;;;9.31;82.13
80511;BME280;69840;53.040;8.600;2023-05-07T02:48:03;102080.66;;;9.21;82.25
80511;BME280;69840;53.040;8.600;2023-05-07T02:50:30;102081.59;;;9.31;81.64
80511;BME280;69840;53.040;8.600;2023-05-07T02:52:59;102081.59;;;9.31;81.80
80511;BME280;69840;53.040;8.600;2023-05-07T02:55:26;102079.34;;;9.26;81.88
80511;BME280;69840;53.040;8.600;2023-05-07T02:57:54;102080.19;;;9.27;82.15
80511;BME280;69840;53.040;8.600;2023-05-07T03:00:22;102083.19;;;9.22;82.08
80511;BME280;69840;53.040;8.600;2023-05-07T03:02:58;102070.22;;;9.19;82.27
80511;BME280;69840;53.040;8.600;2023-05-07T03:05:26;102081.38;;;9.23;82.43
80511;BME280;69840;53.040;8.600;2023-05-07T03:07:53;102082.09;;;9.25;82.33
80511;BME280;69840;53.040;8.600;2023-05-07T03:10:21;102074.53;;;9.20;82.52
80511;BME280;69840;53.040;8.600;2023-05-07T03:12:48;102075.63;;;9.18;82.94
80511;BME280;69840;53.040;8.600;2023-05-07T03:15:17;102076.94;;;9.23;82.42
80511;BME280;69840;53.040;8.600;2023-05-07T03:17:44;102086.28;;;9.27;81.72
80511;BME280;69840;53.040;8.600;2023-05-07T03:20:12;102082.34;;;9.22;81.97
80511;BME280;69840;53.040;8.600;2023-05-07T03:22:40;102082.81;;;9.27;82.04
80511;BME280;69840;53.040;8.600;2023-05-07T03:25:08;102079.47;;;9.25;82.04
80511;BME280;69840;53.040;8.600;2023-05-07T03:27:36;102079.22;;;9.28;82.21
80511;BME280;69840;53.040;8.600;2023-05-07T03:30:04;102078.22;;;9.29;81.94
80511;BME280;69840;53.040;8.600;2023-05-07T03:32:31;102066.03;;;9.28;82.13
80511;BME280;69840;53.040;8.600;2023-05-07T03:34:59;102071.75;;;9.33;81.90
80511;BME280;69840;53.040;8.600;2023-05-07T03:37:26;102057.84;;;9.31;81.61
80511;BME280;69840;53.040;8.600;2023-05-07T03:39:54;102060.34;;;9.32;81.62
80511;BME280;69840;53.040;8.600;2023-05-07T03:42:21;102065.31;;;9.26;82.12
80511;BME280;69840;53.040;8.600;2023-05-07T03:44:51;102071.31;;;9.28;82.18
80511;BME280;69840;53.040;8.600;2023-05-07T03:47:19;102066.16;;;9.15;82.28
80511;BME280;69840;53.040;8.600;2023-05-07T03:49:47;102068.91;;;9.13;82.20
80511;BME280;69840;53.040;8.600;2023-05-07T03:52:14;102073.47;;;9.23;81.54
80511;BME280;69840;53.040;8.600;2023-05-07T03:54:42;102073.94;;;9.28;81.41
80511;BME280;69840;53.040;8.600;2023-05-07T03:57:11;102081.97;;;9.15;81.85
80511;BME280;69840;53.040;8.600;2023-05-07T03:59:40;102072.88;;;9.19;81.48
80511;BME280;69840;53.040;8.600;2023-05-07T04:02:08;102072.66;;;9.11;82.31
80511;BME280;69840;53.040;8.600;2023-05-07T04:04:35;102074.34;;;9.12;82.10
80511;BME280;69840;53.040;8.600;2023-05-07T04:07:03;102073.69;;;9.20;82.01
80511;BME280;69840;53.040;8.600;2023-05-07T04:09:35;102070.59;;;9.14;82.67
80511;BME280;69840;53.040;8.600;2023-05-07T04:12:03;102080.91;;;9.18;82.58
80511;BME280;69840;53.040;8.600;2023-05-07T04:14:31;102082.34;;;9.22;81.94
80511;BME280;69840;53.040;8.600;2023-05-07T04:17:00;102082.22;;;9.23;81.94
80511;BME280;69840;53.040;8.600;2023-05-07T04:19:28;102082.09;;;9.13;82.22
80511;BME280;69840;53.040;8.600;2023-05-07T04:21:55;102091.00;;;9.12;82.08
80511;BME280;69840;53.040;8.600;2023-05-07T04:24:23;102090.41;;;9.09;82.38
80511;BME280;69840;53.040;8.600;2023-05-07T04:26:50;102086.28;;;9.16;82.44
80511;BME280;69840;53.040;8.600;2023-05-07T04:29:20;102089.16;;;9.24;81.95
80511;BME280;69840;53.040;8.600;2023-05-07T04:31:48;102085.09;;;9.20;82.40
80511;BME280;69840;53.040;8.600;2023-05-07T04:34:16;102090.13;;;9.23;82.50
80511;BME280;69840;53.040;8.600;2023-05-07T04:36:43;102090.81;;;9.36;81.44
80511;BME280;69840;53.040;8.600;2023-05-07T04:39:12;102086.88;;;9.20;82.22
80511;BME280;69840;53.040;8.600;2023-05-07T04:41:43;102093.59;;;9.24;82.46
80511;BME280;69840;53.040;8.600;2023-05-07T04:44:11;102096.34;;;9.33;81.91
80511;BME280;69840;53.040;8.600;2023-05-07T04:46:38;102098.84;;;9.35;81.76
80511;BME280;69840;53.040;8.600;2023-05-07T04:49:06;102092.50;;;9.37;81.97
80511;BME280;69840;53.040;8.600;2023-05-07T04:51:34;102087.59;;;9.33;81.90
80511;BME280;69840;53.040;8.600;2023-05-07T04:54:02;102093.22;;;9.39;82.22
80511;BME280;69840;53.040;8.600;2023-05-07T04:56:30;102091.84;;;9.45;82.23
80511;BME280;69840;53.040;8.600;2023-05-07T04:58:59;102097.25;;;9.55;81.93
80511;BME280;69840;53.040;8.600;2023-05-07T05:01:28;102091.75;;;9.46;81.59
80511;BME280;69840;53.040;8.600;2023-05-07T05:03:56;102090.78;;;9.47;81.65
80511;BME280;69840;53.040;8.600;2023-05-07T05:06:23;102094.50;;;9.56;81.38
80511;BME280;69840;53.040;8.600;2023-05-07T05:08:51;102102.41;;;9.56;81.25
80511;BME280;69840;53.040;8.600;2023-05-07T05:11:19;102112.84;;;9.58;81.22
80511;BME280;69840;53.040;8.600;2023-05-07T05:13:47;102109.31;;;9.68;81.23
80511;BME280;69840;53.040;8.600;2023-05-07T05:16:18;102108.69;;;9.76;80.82
80511;BME280;69840;53.040;8.600;2023-05-07T05:18:47;102113.00;;;9.77;80.92
80511;BME280;69840;53.040;8.600;2023-05-07T05:21:17;102114.31;;;9.82;80.32
80511;BME280;69840;53.040;8.600;2023-05-07T05:23:48;102115.25;;;9.81;80.43
80511;BME280;69840;53.040;8.600;2023-05-07T05:26:20;102118.78;;;9.71;80.50
80511;BME280;69840;53.040;8.600;2023-05-07T05:28:48;102113.03;;;9.66;80.64
80511;BME280;69840;53.040;8.600;2023-05-07T05:31:18;102107.47;;;9.80;80.80
80511;BME280;69840;53.040;8.600;2023-05-07T05:33:46;102120.66;;;9.80;80.67
80511;BME280;69840;53.040;8.600;2023-05-07T05:36:14;102113.81;;;9.89;80.55
80511;BME280;69840;53.040;8.600;2023-05-07T05:38:43;102120.53;;;9.81;79.77
80511;BME280;69840;53.040;8.600;2023-05-07T05:41:11;102127.63;;;9.81;80.66
80511;BME280;69840;53.040;8.600;2023-05-07T05:43:39;102126.06;;;9.90;80.54
80511;BME280;69840;53.040;8.600;2023-05-07T05:46:06;102119.53;;;9.94;80.16
80511;BME280;69840;53.040;8.600;2023-05-07T05:48:34;102128.16;;;9.96;80.12
80511;BME280;69840;53.040;8.600;2023-05-07T05:51:03;102124.38;;;9.89;80.19
80511;BME280;69840;53.040;8.600;2023-05-07T05:53:31;102129.38;;;9.92;79.97
80511;BME280;69840;53.040;8.600;2023-05-07T05:55:59;102129.13;;;9.95;79.38
80511;BME280;69840;53.040;8.600;2023-05-07T05:58:26;102141.78;;;9.91;79.99
80511;BME280;69840;53.040;8.600;2023-05-07T06:00:59;102150.66;;;9.90;80.17
80511;BME280;69840;53.040;8.600;2023-05-07T06:03:28;102144.84;;;9.96;79.84
80511;BME280;69840;53.040;8.600;2023-05-07T06:05:58;102135.34;;;10.05;79.77
80511;BME280;69840;53.040;8.600;2023-05-07T06:08:28;102138.00;;;10.05;79.58
80511;BME280;69840;53.040;8.600;2023-05-07T06:10:56;102125.34;;;10.08;79.03
80511;BME280;69840;53.040;8.600;2023-05-07T06:13:24;102133.16;;;10.10;78.87
80511;BME280;69840;53.040;8.600;2023-05-07T06:15:52;102137.16;;;10.04;78.69
80511;BME280;69840;53.040;8.600;2023-05-07T06:18:20;102135.59;;;10.02;78.53
80511;BME280;69840;53.040;8.600;2023-05-07T06:20:47;102130.69;;;9.97;79.34
80511;BME280;69840;53.040;8.600;2023-05-07T06:23:23;102140.22;;;9.89;79.22
80511;BME280;69840;53.040;8.600;2023-05-07T06:25:51;102141.91;;;9.90;79.40
80511;BME280;69840;53.040;8.600;2023-05-07T06:28:22;102140.41;;;9.97;78.81
80511;BME280;69840;53.040;8.600;2023-05-07T06:30:51;102140.94;;;10.11;77.57
80511;BME280;69840;53.040;8.600;2023-05-07T06:33:18;102148.50;;;10.16;77.93
80511;BME280;69840;53.040;8.600;2023-05-07T06:35:46;102143.47;;;10.13;77.31
80511;BME280;69840;53.040;8.600;2023-05-07T06:38:13;102136.34;;;10.25;76.91
80511;BME280;69840;53.040;8.600;2023-05-07T06:40:42;102135.16;;;10.17;76.96
80511;BME280;69840;53.040;8.600;2023-05-07T06:43:09;102133.28;;;10.08;77.39
80511;BME280;69840;53.040;8.600;2023-05-07T06:45:53;102144.47;;;10.33;77.26
80511;BME280;69840;53.040;8.600;2023-05-07T06:48:20;102134.81;;;10.43;76.45
80511;BME280;69840;53.040;8.600;2023-05-07T06:50:58;102137.53;;;10.52;76.79
80511;BME280;69840;53.040;8.600;2023-05-07T06:53:26;102142.97;;;10.61;75.26
80511;BME280;69840;53.040;8.600;2023-05-07T06:55:56;102143.25;;;10.58;74.66
80511;BME280;69840;53.040;8.600;2023-05-07T06:58:23;102155.06;;;10.53;75.75
80511;BME280;69840;53.040;8.600;2023-05-07T07:00:51;102149.91;;;10.52;75.21
80511;BME280;69840;53.040;8.600;2023-05-07T07:03:19;102154.59;;;10.48;74.61
80511;BME280;69840;53.040;8.600;2023-05-07T07:05:46;102155.94;;;10.43;76.30
80511;BME280;69840;53.040;8.600;2023-05-07T07:08:14;102156.28;;;10.49;75.47
80511;BME280;69840;53.040;8.600;2023-05-07T07:10:41;102155.50;;;10.59;76.03
80511;BME280;69840;53.040;8.600;2023-05-07T07:13:08;102154.44;;;10.71;76.06
80511;BME280;69840;53.040;8.600;2023-05-07T07:15:36;102159.22;;;10.77;75.60
80511;BME280;69840;53.040;8.600;2023-05-07T07:18:04;102163.81;;;10.75;75.78
80511;BME280;69840;53.040;8.600;2023-05-07T07:20:32;102156.84;;;10.74;75.08
80511;BME280;69840;53.040;8.600;2023-05-07T07:23:00;102156.97;;;10.72;75.64
80511;BME280;69840;53.040;8.600;2023-05-07T07:25:27;102158.75;;;10.72;75.66
80511;BME280;69840;53.040;8.600;2023-05-07T07:27:55;102165.56;;;10.85;75.16
80511;BME280;69840;53.040;8.600;2023-05-07T07:30:25;102156.28;;;10.70;75.70
80511;BME280;69840;53.040;8.600;2023-05-07T07:32:53;102160.19;;;10.76;74.61
80511;BME280;69840;53.040;8.600;2023-05-07T07:35:20;102165.31;;;10.68;75.54
80511;BME280;69840;53.040;8.600;2023-05-07T07:37:48;102162.84;;;10.76;74.86
80511;BME280;69840;53.040;8.600;2023-05-07T07:40:16;102154.50;;;10.80;74.10
80511;BME280;69840;53.040;8.600;2023-05-07T07:42:45;102162.13;;;10.74;74.35
80511;BME280;69840;53.040;8.600;2023-05-07T07:45:13;102161.41;;;10.72;75.04
80511;BME280;69840;53.040;8.600;2023-05-07T07:47:44;102167.75;;;10.80;74.72
80511;BME280;69840;53.040;8.600;2023-05-07T07:50:12;102175.31;;;10.95;74.53
80511;BME280;69840;53.040;8.600;2023-05-07T07:52:44;102176.19;;;11.05;74.43
80511;BME280;69840;53.040;8.600;2023-05-07T07:55:14;102172.69;;;10.95;74.07
80511;BME280;69840;53.040;8.600;2023-05-07T07:57:42;102173.47;;;10.85;74.21
80511;BME280;69840;53.040;8.600;2023-05-07T08:00:10;102184.97;;;11.05;74.33
80511;BME280;69840;53.040;8.600;2023-05-07T08:02:44;102188.66;;;11.14;74.29
80511;BME280;69840;53.040;8.600;2023-05-07T08:05:19;102186.16;;;11.22;73.58
80511;BME280;69840;53.040;8.600;2023-05-07T08:07:48;102184.09;;;11.25;72.48
80511;BME280;69840;53.040;8.600;2023-05-07T08:10:15;102184.25;;;11.34;73.68
80511;BME280;69840;53.040;8.600;2023-05-07T08:12:43;102183.59;;;11.51;72.25
80511;BME280;69840;53.040;8.600;2023-05-07T08:15:10;102184.41;;;11.82;70.79
80511;BME280;69840;53.040;8.600;2023-05-07T08:17:38;102180.81;;;11.92;70.37
80511;BME280;69840;53.040;8.600;2023-05-07T08:20:08;102185.97;;;11.94;69.15
80511;BME280;69840;53.040;8.600;2023-05-07T08:22:37;102192.50;;;12.00;68.99
80511;BME280;69840;53.040;8.600;2023-05-07T08:25:05;102187.84;;;11.73;70.17
80511;BME280;69840;53.040;8.600;2023-05-07T08:27:33;102192.25;;;11.93;70.19
80511;BME280;69840;53.040;8.600;2023-05-07T08:30:01;102187.38;;;12.08;69.33
80511;BME280;69840;53.040;8.600;2023-05-07T08:32:29;102180.13;;;12.10;68.66
80511;BME280;69840;53.040;8.600;2023-05-07T08:34:57;102194.06;;;12.12;69.68
80511;BME280;69840;53.040;8.600;2023-05-07T08:37:24;102194.75;;;12.33;68.40
80511;BME280;69840;53.040;8.600;2023-05-07T08:39:52;102183.97;;;12.44;67.79
80511;BME280;69840;53.040;8.600;2023-05-07T08:42:23;102193.06;;;12.51;68.01
80511;BME280;69840;53.040;8.600;2023-05-07T08:44:51;102196.69;;;12.50;68.11
80511;BME280;69840;53.040;8.600;2023-05-07T08:47:22;102198.78;;;12.56;67.80
80511;BME280;69840;53.040;8.600;2023-05-07T08:49:53;102189.72;;;12.30;68.07
80511;BME280;69840;53.040;8.600;2023-05-07T08:52:22;102204.34;;;12.63;67.83
80511;BME280;69840;53.040;8.600;2023-05-07T08:54:50;102200.72;;;12.64;68.42
80511;BME280;69840;53.040;8.600;2023-05-07T08:57:18;102194.50;;;12.92;67.00
80511;BME280;69840;53.040;8.600;2023-05-07T08:59:46;102184.22;;;12.80;65.50
80511;BME280;69840;53.040;8.600;2023-05-07T09:02:14;102189.31;;;13.00;67.35
80511;BME280;69840;53.040;8.600;2023-05-07T09:04:42;102187.34;;;13.40;64.09
80511;BME280;69840;53.040;8.600;2023-05-07T09:07:10;102191.75;;;13.76;64.27
80511;BME280;69840;53.040;8.600;2023-05-07T09:09:43;102190.25;;;13.91;62.36
80511;BME280;69840;53.040;8.600;2023-05-07T09:12:12;102199.25;;;14.08;64.14
80511;BME280;69840;53.040;8.600;2023-05-07T09:14:40;102199.53;;;14.23;63.68
80511;BME280;69840;53.040;8.600;2023-05-07T09:17:08;102197.13;;;14.12;61.36
80511;BME280;69840;53.040;8.600;2023-05-07T09:19:35;102207.50;;;14.23;61.54
80511;BME280;69840;53.040;8.600;2023-05-07T09:22:05;102206.13;;;14.01;62.18
80511;BME280;69840;53.040;8.600;2023-05-07T09:24:50;102206.66;;;14.04;61.46
80511;BME280;69840;53.040;8.600;2023-05-07T09:27:21;102195.28;;;13.94;62.37
80511;BME280;69840;53.040;8.600;2023-05-07T09:29:49;102201.59;;;13.93;61.86
80511;BME280;69840;53.040;8.600;2023-05-07T09:32:17;102202.28;;;13.95;64.66
80511;BME280;69840;53.040;8.600;2023-05-07T09:34:45;102200.47;;;14.14;63.36
80511;BME280;69840;53.040;8.600;2023-05-07T09:37:13;102195.97;;;14.14;62.01
80511;BME280;69840;53.040;8.600;2023-05-07T09:39:50;102199.31;;;13.98;60.28
80511;BME280;69840;53.040;8.600;2023-05-07T09:42:24;102197.66;;;13.70;63.94
80511;BME280;69840;53.040;8.600;2023-05-07T09:44:53;102202.00;;;13.71;64.34
80511;BME280;69840;53.040;8.600;2023-05-07T09:47:24;102191.94;;;13.92;62.36
80511;BME280;69840;53.040;8.600;2023-05-07T09:49:56;102183.19;;;14.18;62.32
80511;BME280;69840;53.040;8.600;2023-05-07T09:52:25;102185.56;;;14.21;63.69
80511;BME280;69840;53.040;8.600;2023-05-07T09:54:57;102188.19;;;14.38;61.73
80511;BME280;69840;53.040;8.600;2023-05-07T09:57:27;102182.97;;;14.29;60.89
80511;BME280;69840;53.040;8.600;2023-05-07T10:00:02;102182.00;;;14.48;61.09
80511;BME280;69840;53.040;8.600;2023-05-07T10:02:35;102182.38;;;14.79;62.85
80511;BME280;69840;53.040;8.600;2023-05-07T10:05:03;102182.56;;;14.85;58.79
80511;BME280;69840;53.040;8.600;2023-05-07T10:07:35;102177.81;;;14.97;60.53
80511;BME280;69840;53.040;8.600;2023-05-07T10:10:07;102177.66;;;15.32;57.38
80511;BME280;69840;53.040;8.600;2023-05-07T10:12:40;102191.19;;;15.39;57.12
80511;BME280;69840;53.040;8.600;2023-05-07T10:15:14;102191.00;;;15.40;58.47
80511;BME280;69840;53.040;8.600;2023-05-07T10:17:48;102193.41;;;15.60;57.76
80511;BME280;69840;53.040;8.600;2023-05-07T10:20:16;102191.44;;;15.62;57.31
80511;BME280;69840;53.040;8.600;2023-05-07T10:22:47;102186.25;;;15.60;58.11
80511;BME280;69840;53.040;8.600;2023-05-07T10:25:30;102194.16;;;15.78;56.61
80511;BME280;69840;53.040;8.600;2023-05-07T10:28:08;102192.03;;;16.22;56.15
80511;BME280;69840;53.040;8.600;2023-05-07T10:31:00;102199.41;;;16.20;56.24
80511;BME280;69840;53.040;8.600;2023-05-07T10:33:39;102203.41;;;16.32;57.23
80511;BME280;69840;53.040;8.600;2023-05-07T10:36:08;102201.38;;;16.26;56.05
80511;BME280;69840;53.040;8.600;2023-05-07T10:38:36;102199.53;;;16.59;53.96
80511;BME280;69840;53.040;8.600;2023-05-07T10:41:04;102208.06;;;16.14;55.61
80511;BME280;69840;53.040;8.600;2023-05-07T10:43:44;102201.53;;;16.08;55.20
80511;BME280;69840;53.040;8.600;2023-05-07T10:46:22;102207.88;;;16.24;55.10
80511;BME280;69840;53.040;8.600;2023-05-07T10:49:06;102201.50;;;15.92;57.53
80511;BME280;69840;53.040;8.600;2023-05-07T10:51:42;102203.72;;;16.29;57.29
80511;BME280;69840;53.040;8.600;2023-05-07T10:54:20;102204.56;;;16.78;55.28
80511;BME280;69840;53.040;8.600;2023-05-07T11:05:37;102204.06;;;16.75;55.48
80511;BME280;69840;53.040;8.600;2023-05-07T11:08:15;102198.56;;;16.52;55.97
80511;BME280;69840;53.040;8.600;2023-05-07T11:10:53;102203.38;;;16.57;54.04
80511;BME280;69840;53.040;8.600;2023-05-07T11:13:45;102206.88;;;16.25;56.69
80511;BME280;69840;53.040;8.600;2023-05-07T11:16:40;102200.84;;;16.06;58.92
80511;BME280;69840;53.040;8.600;2023-05-07T11:19:17;102194.53;;;16.24;55.70
80511;BME280;69840;53.040;8.600;2023-05-07T11:21:48;102195.91;;;16.20;56.82
80511;BME280;69840;53.040;8.600;2023-05-07T11:24:42;102197.16;;;15.91;57.07
80511;BME280;69840;53.040;8.600;2023-05-07T11:27:12;102190.97;;;15.74;57.83
80511;BME280;69840;53.040;8.600;2023-05-07T11:29:46;102194.53;;;16.07;57.43
80511;BME280;69840;53.040;8.600;2023-05-07T11:32:14;102199.38;;;16.12;56.99
80511;BME280;69840;53.040;8.600;2023-05-07T11:34:55;102195.94;;;15.61;58.34
80511;BME280;69840;53.040;8.600;2023-05-07T11:37:25;102213.44;;;15.64;57.09
80511;BME280;69840;53.040;8.600;2023-05-07T11:40:05;102207.59;;;15.60;58.85
80511;BME280;69840;53.040;8.600;2023-05-07T11:42:35;102216.22;;;15.54;58.42
80511;BME280;69840;53.040;8.600;2023-05-07T11:45:03;102214.84;;;15.50;58.37
80511;BME280;69840;53.040;8.600;2023-05-07T11:47:32;102214.38;;;15.55;57.80
80511;BME280;69840;53.040;8.600;2023-05-07T11:50:07;102215.34;;;15.45;58.94
80511;BME280;69840;53.040;8.600;2023-05-07T11:52:35;102209.91;;;15.21;59.30
80511;BME280;69840;53.040;8.600;2023-05-07T11:55:03;102209.09;;;14.95;60.33
80511;BME280;69840;53.040;8.600;2023-05-07T11:57:32;102210.09;;;15.28;59.16
80511;BME280;69840;53.040;8.600;2023-05-07T12:00:00;102204.19;;;15.08;58.56
80511;BME280;69840;53.040;8.600;2023-05-07T12:02:38;102205.41;;;15.22;58.89
80511;BME280;69840;53.040;8.600;2023-05-07T12:05:06;102213.53;;;15.54;59.44
80511;BME280;69840;53.040;8.600;2023-05-07T12:07:34;102206.59;;;15.27;59.14
80511;BME280;69840;53.040;8.600;2023-05-07T12:10:05;102210.84;;;15.46;58.52
80511;BME280;69840;53.040;8.600;2023-05-07T12:12:40;102204.75;;;15.62;59.40
80511;BME280;69840;53.040;8.600;2023-05-07T12:15:08;102201.81;;;15.81;59.28
80511;BME280;69840;53.040;8.600;2023-05-07T12:17:36;102199.38;;;16.12;57.71
80511;BME280;69840;53.040;8.600;2023-05-07T12:20:04;102197.75;;;16.68;55.59
80511;BME280;69840;53.040;8.600;2023-05-07T12:22:32;102191.72;;;16.82;55.87
80511;BME280;69840;53.040;8.600;2023-05-07T12:25:00;102203.31;;;17.05;54.99
80511;BME280;69840;53.040;8.600;2023-05-07T12:27:27;102200.69;;;17.44;54.71
80511;BME280;69840;53.040;8.600;2023-05-07T12:29:57;102206.31;;;17.49;53.64
80511;BME280;69840;53.040;8.600;2023-05-07T12:32:24;102199.63;;;17.53;53.95
80511;BME280;69840;53.040;8.600;2023-05-07T12:34:52;102204.66;;;17.48;53.99
80511;BME280;69840;53.040;8.600;2023-05-07T12:37:24;102203.06;;;18.01;53.96
80511;BME280;69840;53.040;8.600;2023-05-07T12:42:36;102201.16;;;18.33;50.93
80511;BME280;69840;53.040;8.600;2023-05-07T12:45:12;102198.22;;;18.42;50.57
80511;BME280;69840;53.040;8.600;2023-05-07T12:47:43;102200.97;;;18.57;51.32
80511;BME280;69840;53.040;8.600;2023-05-07T12:50:11;102202.31;;;19.05;50.03
80511;BME280;69840;53.040;8.600;2023-05-07T12:52:39;102200.91;;;19.24;50.52
80511;BME280;69840;53.040;8.600;2023-05-07T12:55:08;102201.84;;;19.31;48.56
80511;BME280;69840;53.040;8.600;2023-05-07T12:57:48;102202.03;;;19.30;50.13
80511;BME280;69840;53.040;8.600;2023-05-07T13:00:16;102203.72;;;18.86;48.74
80511;BME280;69840;53.040;8.600;2023-05-07T13:02:45;102201.28;;;19.21;49.00
80511;BME280;69840;53.040;8.600;2023-05-07T13:05:12;102202.59;;;19.25;48.32
80511;BME280;69840;53.040;8.600;2023-05-07T13:07:40;102200.63;;;19.63;48.47
80511;BME280;69840;53.040;8.600;2023-05-07T13:10:08;102198.31;;;19.96;47.12
80511;BME280;69840;53.040;8.600;2023-05-07T13:12:36;102197.66;;;19.94;47.21
80511;BME280;69840;53.040;8.600;2023-05-07T13:15:04;102200.13;;;19.74;48.22
80511;BME280;69840;53.040;8.600;2023-05-07T13:17:31;102201.38;;;19.93;47.64
80511;BME280;69840;53.040;8.600;2023-05-07T13:19:59;102202.03;;;19.95;46.00